sensor_id;sensor_type;location;lat;lon;timestamp;temperature;humidity
76102;SHT30;64830;46.910;6.354;2023-05-07T00:01:12;13.95;72.31
76102;SHT30;64830;46.910;6.354;2023-05-07T00:03:37;13.91;72.38
76102;SHT30;64830;46.910;6.354;2023-05-07T00:06:03;13.88;72.76
76102;SHT30;64830;46.910;6.354;2023-05-07T00:08:28;13.84;72.64
76102;SHT30;64830;46.910;6.354;2023-05-07T00:10:54;13.81;72.29
76102;SHT30;64830;46.910;6.354;2023-05-07T00:13:20;13.78;72.83
76102;SHT30;64830;46.910;6.354;2023-05-07T00:15:45;13.76;72.59
76102;SHT30;64830;46.910;6.354;2023-05-07T00:18:10;13.71;72.83
76102;SHT30;64830;46.910;6.354;2023-05-07T00:20:36;13.69;73.44
76102;SHT30;64830;46.910;6.354;2023-05-07T00:23:01;13.63;73.57
76102;SHT30;64830;46.910;6.354;2023-05-07T00:25:27;13.58;72.92
76102;SHT30;64830;46.910;6.354;2023-05-07T00:27:52;13.55;73.26
76102;SHT30;64830;46.910;6.354;2023-05-07T00:30:17;13.56;73.15
76102;SHT30;64830;46.910;6.354;2023-05-07T00:32:43;13.53;73.33
76102;SHT30;64830;46.910;6.354;2023-05-07T00:35:10;13.53;73.08
76102;SHT30;64830;46.910;6.354;2023-05-07T00:37:36;13.52;73.08
76102;SHT30;64830;46.910;6.354;2023-05-07T00:40:02;13.52;73.09
76102;SHT30;64830;46.910;6.354;2023-05-07T00:42:30;13.50;73.11
76102;SHT30;64830;46.910;6.354;2023-05-07T00:44:57;13.52;72.89
76102;SHT30;64830;46.910;6.354;2023-05-07T00:47:23;13.49;73.03
76102;SHT30;64830;46.910;6.354;2023-05-07T00:49:49;13.50;73.07
76102;SHT30;64830;46.910;6.354;2023-05-07T00:52:16;13.48;72.98
76102;SHT30;64830;46.910;6.354;2023-05-07T00:54:42;13.50;72.77
76102;SHT30;64830;46.910;6.354;2023-05-07T00:57:09;13.53;72.87
76102;SHT30;64830;46.910;6.354;2023-05-07T00:59:35;13.53;72.75
76102;SHT30;64830;46.910;6.354;2023-05-07T01:02:01;13.52;73.28
76102;SHT30;64830;46.910;6.354;2023-05-07T01:04:26;13.52;72.73
76102;SHT30;64830;46.910;6.354;2023-05-07T01:06:54;13.50;72.93
76102;SHT30;64830;46.910;6.354;2023-05-07T01:09:22;13.52;72.85
76102;SHT30;64830;46.910;6.354;2023-05-07T01:11:49;13.50;72.89
76102;SHT30;64830;46.910;6.354;2023-05-07T01:14:16;13.49;73.00
76102;SHT30;64830;46.910;6.354;2023-05-07T01:16:41;13.46;73.00
76102;SHT30;64830;46.910;6.354;2023-05-07T01:19:08;13.42;73.03
76102;SHT30;64830;46.910;6.354;2023-05-07T01:21:37;13.35;73.20
76102;SHT30;64830;46.910;6.354;2023-05-07T01:24:04;13.32;73.13
76102;SHT30;64830;46.910;6.354;2023-05-07T01:26:30;13.29;73.78
76102;SHT30;64830;46.910;6.354;2023-05-07T01:28:55;13.19;73.57
76102;SHT30;64830;46.910;6.354;2023-05-07T01:31:22;13.16;73.78
76102;SHT30;64830;46.910;6.354;2023-05-07T01:33:48;13.15;73.68
76102;SHT30;64830;46.910;6.354;2023-05-07T01:36:15;13.08;73.66
76102;SHT30;64830;46.910;6.354;2023-05-07T01:38:43;13.07;73.63
76102;SHT30;64830;46.910;6.354;2023-05-07T01:41:08;13.07;73.55
76102;SHT30;64830;46.910;6.354;2023-05-07T01:43:34;13.04;73.52
76102;SHT30;64830;46.910;6.354;2023-05-07T01:46:01;13.07;73.35
76102;SHT30;64830;46.910;6.354;2023-05-07T01:48:28;13.04;73.40
76102;SHT30;64830;46.910;6.354;2023-05-07T01:50:54;13.03;73.50
76102;SHT30;64830;46.910;6.354;2023-05-07T01:53:20;13.01;73.70
76102;SHT30;64830;46.910;6.354;2023-05-07T01:55:45;12.96;73.56
76102;SHT30;64830;46.910;6.354;2023-05-07T01:58:11;12.94;73.60
76102;SHT30;64830;46.910;6.354;2023-05-07T02:00:36;12.94;73.62
76102;SHT30;64830;46.910;6.354;2023-05-07T02:03:01;12.96;73.88
76102;SHT30;64830;46.910;6.354;2023-05-07T02:05:27;12.93;74.00
76102;SHT30;64830;46.910;6.354;2023-05-07T02:07:52;12.91;74.30
76102;SHT30;64830;46.910;6.354;2023-05-07T02:10:18;12.88;74.08
76102;SHT30;64830;46.910;6.354;2023-05-07T02:12:43;12.90;74.04
76102;SHT30;64830;46.910;6.354;2023-05-07T02:15:09;12.87;73.97
76102;SHT30;64830;46.910;6.354;2023-05-07T02:17:34;12.88;73.91
76102;SHT30;64830;46.910;6.354;2023-05-07T02:20:00;12.90;73.84
76102;SHT30;64830;46.910;6.354;2023-05-07T02:22:26;12.87;73.95
76102;SHT30;64830;46.910;6.354;2023-05-07T02:24:51;12.83;73.82
76102;SHT30;64830;46.910;6.354;2023-05-07T02:27:17;12.83;73.82
76102;SHT30;64830;46.910;6.354;2023-05-07T02:29:42;12.83;74.16
76102;SHT30;64830;46.910;6.354;2023-05-07T02:32:07;12.81;73.88
76102;SHT30;64830;46.910;6.354;2023-05-07T02:34:33;12.79;73.97
76102;SHT30;64830;46.910;6.354;2023-05-07T02:36:58;12.81;74.00
76102;SHT30;64830;46.910;6.354;2023-05-07T02:39:23;12.81;73.82
76102;SHT30;64830;46.910;6.354;2023-05-07T02:41:49;12.79;73.78
76102;SHT30;64830;46.910;6.354;2023-05-07T02:44:14;12.81;73.88
76102;SHT30;64830;46.910;6.354;2023-05-07T02:46:40;12.80;74.06
76102;SHT30;64830;46.910;6.354;2023-05-07T02:49:05;12.80;74.16
76102;SHT30;64830;46.910;6.354;2023-05-07T02:51:31;12.83;74.11
76102;SHT30;64830;46.910;6.354;2023-05-07T02:53:56;12.80;74.26
76102;SHT30;64830;46.910;6.354;2023-05-07T02:56:22;12.79;74.23
76102;SHT30;64830;46.910;6.354;2023-05-07T02:58:47;12.77;74.20
76102;SHT30;64830;46.910;6.354;2023-05-07T03:01:13;12.80;74.44
76102;SHT30;64830;46.910;6.354;2023-05-07T03:03:39;12.79;74.25
76102;SHT30;64830;46.910;6.354;2023-05-07T03:06:05;12.76;74.14
76102;SHT30;64830;46.910;6.354;2023-05-07T03:08:32;12.76;74.20
76102;SHT30;64830;46.910;6.354;2023-05-07T03:10:57;12.77;74.16
76102;SHT30;64830;46.910;6.354;2023-05-07T03:13:22;12.77;74.28
76102;SHT30;64830;46.910;6.354;2023-05-07T03:15:48;12.76;74.27
76102;SHT30;64830;46.910;6.354;2023-05-07T03:18:13;12.81;74.11
76102;SHT30;64830;46.910;6.354;2023-05-07T03:20:39;12.86;74.14
76102;SHT30;64830;46.910;6.354;2023-05-07T03:23:05;12.90;74.81
76102;SHT30;64830;46.910;6.354;2023-05-07T03:25:31;12.98;74.34
76102;SHT30;64830;46.910;6.354;2023-05-07T03:27:56;13.07;74.41
76102;SHT30;64830;46.910;6.354;2023-05-07T03:30:22;13.11;74.29
76102;SHT30;64830;46.910;6.354;2023-05-07T03:32:47;13.18;74.24
76102;SHT30;64830;46.910;6.354;2023-05-07T03:35:13;13.24;74.15
76102;SHT30;64830;46.910;6.354;2023-05-07T03:37:39;13.31;74.23
76102;SHT30;64830;46.910;6.354;2023-05-07T03:40:05;13.34;74.07
76102;SHT30;64830;46.910;6.354;2023-05-07T03:42:31;13.34;73.93
76102;SHT30;64830;46.910;6.354;2023-05-07T03:44:56;13.31;73.57
76102;SHT30;64830;46.910;6.354;2023-05-07T03:47:22;13.26;73.49
76102;SHT30;64830;46.910;6.354;2023-05-07T03:49:47;13.26;73.57
76102;SHT30;64830;46.910;6.354;2023-05-07T03:52:14;13.25;73.62
76102;SHT30;64830;46.910;6.354;2023-05-07T03:54:40;13.22;73.59
76102;SHT30;64830;46.910;6.354;2023-05-07T03:57:05;13.25;73.73
76102;SHT30;64830;46.910;6.354;2023-05-07T03:59:30;13.22;73.75
76102;SHT30;64830;46.910;6.354;2023-05-07T04:01:56;13.22;74.00
76102;SHT30;64830;46.910;6.354;2023-05-07T04:04:21;13.24;73.86
76102;SHT30;64830;46.910;6.354;2023-05-07T04:06:47;13.25;73.86
76102;SHT30;64830;46.910;6.354;2023-05-07T04:09:12;13.29;73.87
76102;SHT30;64830;46.910;6.354;2023-05-07T04:11:37;13.31;74.15
76102;SHT30;64830;46.910;6.354;2023-05-07T04:14:05;13.32;74.17
76102;SHT30;64830;46.910;6.354;2023-05-07T04:16:31;13.34;74.35
76102;SHT30;64830;46.910;6.354;2023-05-07T04:18:56;13.38;74.22
76102;SHT30;64830;46.910;6.354;2023-05-07T04:21:21;13.41;74.38
76102;SHT30;64830;46.910;6.354;2023-05-07T04:23:47;13.45;74.18
76102;SHT30;64830;46.910;6.354;2023-05-07T04:26:13;13.49;74.07
76102;SHT30;64830;46.910;6.354;2023-05-07T04:28:39;13.52;74.08
76102;SHT30;64830;46.910;6.354;2023-05-07T04:31:05;13.55;73.91
76102;SHT30;64830;46.910;6.354;2023-05-07T04:33:31;13.60;73.84
76102;SHT30;64830;46.910;6.354;2023-05-07T04:35:57;13.63;73.80
76102;SHT30;64830;46.910;6.354;2023-05-07T04:38:28;13.67;73.62
76102;SHT30;64830;46.910;6.354;2023-05-07T04:40:53;13.73;73.47
76102;SHT30;64830;46.910;6.354;2023-05-07T04:43:18;13.73;73.47
76102;SHT30;64830;46.910;6.354;2023-05-07T04:45:44;13.81;73.27
76102;SHT30;64830;46.910;6.354;2023-05-07T04:48:09;13.81;73.06
76102;SHT30;64830;46.910;6.354;2023-05-07T04:50:35;13.84;73.34
76102;SHT30;64830;46.910;6.354;2023-05-07T04:53:00;13.90;73.16
76102;SHT30;64830;46.910;6.354;2023-05-07T04:55:26;13.90;73.22
76102;SHT30;64830;46.910;6.354;2023-05-07T04:57:52;13.93;72.90
76102;SHT30;64830;46.910;6.354;2023-05-07T05:00:18;13.95;72.76
76102;SHT30;64830;46.910;6.354;2023-05-07T05:02:45;13.95;72.54
76102;SHT30;64830;46.910;6.354;2023-05-07T05:05:10;14.01;72.56
76102;SHT30;64830;46.910;6.354;2023-05-07T05:07:36;14.07;72.47
76102;SHT30;64830;46.910;6.354;2023-05-07T05:10:02;14.11;72.35
76102;SHT30;64830;46.910;6.354;2023-05-07T05:12:29;14.18;72.30
76102;SHT30;64830;46.910;6.354;2023-05-07T05:14:55;14.25;72.12
76102;SHT30;64830;46.910;6.354;2023-05-07T05:17:20;14.31;71.98
76102;SHT30;64830;46.910;6.354;2023-05-07T05:19:46;14.36;71.86
76102;SHT30;64830;46.910;6.354;2023-05-07T05:22:11;14.45;71.82
76102;SHT30;64830;46.910;6.354;2023-05-07T05:24:36;14.49;71.50
76102;SHT30;64830;46.910;6.354;2023-05-07T05:27:02;14.49;71.35
76102;SHT30;64830;46.910;6.354;2023-05-07T05:29:28;14.55;71.33
76102;SHT30;64830;46.910;6.354;2023-05-07T05:31:53;14.56;71.43
76102;SHT30;64830;46.910;6.354;2023-05-07T05:34:18;14.60;71.37
76102;SHT30;64830;46.910;6.354;2023-05-07T05:36:47;14.63;71.31
76102;SHT30;64830;46.910;6.354;2023-05-07T05:39:12;14.62;71.42
76102;SHT30;64830;46.910;6.354;2023-05-07T05:41:38;14.65;71.25
76102;SHT30;64830;46.910;6.354;2023-05-07T05:44:03;14.65;71.23
76102;SHT30;64830;46.910;6.354;2023-05-07T05:46:29;14.65;71.13
76102;SHT30;64830;46.910;6.354;2023-05-07T05:48:54;14.62;71.15
76102;SHT30;64830;46.910;6.354;2023-05-07T05:51:21;14.60;71.46
76102;SHT30;64830;46.910;6.354;2023-05-07T05:53:46;14.60;71.38
76102;SHT30;64830;46.910;6.354;2023-05-07T05:56:12;14.63;71.33
76102;SHT30;64830;46.910;6.354;2023-05-07T05:58:37;14.65;71.58
76102;SHT30;64830;46.910;6.354;2023-05-07T06:01:03;14.63;71.59
76102;SHT30;64830;46.910;6.354;2023-05-07T06:03:28;14.60;71.82
76102;SHT30;64830;46.910;6.354;2023-05-07T06:05:54;14.56;72.38
76102;SHT30;64830;46.910;6.354;2023-05-07T06:08:19;14.55;72.82
76102;SHT30;64830;46.910;6.354;2023-05-07T06:10:45;14.53;72.76
76102;SHT30;64830;46.910;6.354;2023-05-07T06:13:10;14.52;73.18
76102;SHT30;64830;46.910;6.354;2023-05-07T06:15:35;14.53;73.27
76102;SHT30;64830;46.910;6.354;2023-05-07T06:18:01;14.48;73.78
76102;SHT30;64830;46.910;6.354;2023-05-07T06:20:26;14.43;73.95
76102;SHT30;64830;46.910;6.354;2023-05-07T06:22:52;14.42;74.14
76102;SHT30;64830;46.910;6.354;2023-05-07T06:25:17;14.42;74.54
76102;SHT30;64830;46.910;6.354;2023-05-07T06:27:42;14.43;75.11
76102;SHT30;64830;46.910;6.354;2023-05-07T06:30:08;14.38;75.48
76102;SHT30;64830;46.910;6.354;2023-05-07T06:32:33;14.35;75.04
76102;SHT30;64830;46.910;6.354;2023-05-07T06:34:59;14.33;75.43
76102;SHT30;64830;46.910;6.354;2023-05-07T06:37:25;14.32;75.38
76102;SHT30;64830;46.910;6.354;2023-05-07T06:39:50;14.32;75.19
76102;SHT30;64830;46.910;6.354;2023-05-07T06:42:16;14.29;75.22
76102;SHT30;64830;46.910;6.354;2023-05-07T06:44:41;14.31;75.30
76102;SHT30;64830;46.910;6.354;2023-05-07T06:47:07;14.32;75.36
76102;SHT30;64830;46.910;6.354;2023-05-07T06:49:32;14.32;75.71
76102;SHT30;64830;46.910;6.354;2023-05-07T06:51:58;14.36;75.97
76102;SHT30;64830;46.910;6.354;2023-05-07T06:54:23;14.43;76.23
76102;SHT30;64830;46.910;6.354;2023-05-07T06:56:49;14.45;75.90
76102;SHT30;64830;46.910;6.354;2023-05-07T06:59:15;14.48;76.50
76102;SHT30;64830;46.910;6.354;2023-05-07T07:01:40;14.49;76.78
76102;SHT30;64830;46.910;6.354;2023-05-07T07:04:06;14.52;76.63
76102;SHT30;64830;46.910;6.354;2023-05-07T07:06:31;14.57;76.37
76102;SHT30;64830;46.910;6.354;2023-05-07T07:08:58;14.60;76.48
76102;SHT30;64830;46.910;6.354;2023-05-07T07:11:23;14.66;76.95
76102;SHT30;64830;46.910;6.354;2023-05-07T07:13:49;14.77;76.73
76102;SHT30;64830;46.910;6.354;2023-05-07T07:16:15;14.91;76.73
76102;SHT30;64830;46.910;6.354;2023-05-07T07:18:41;15.04;76.62
76102;SHT30;64830;46.910;6.354;2023-05-07T07:21:06;15.14;76.64
76102;SHT30;64830;46.910;6.354;2023-05-07T07:23:32;15.35;76.50
76102;SHT30;64830;46.910;6.354;2023-05-07T07:25:58;15.56;76.00
76102;SHT30;64830;46.910;6.354;2023-05-07T07:28:23;15.74;75.67
76102;SHT30;64830;46.910;6.354;2023-05-07T07:30:48;15.87;75.40
76102;SHT30;64830;46.910;6.354;2023-05-07T07:33:14;15.98;74.85
76102;SHT30;64830;46.910;6.354;2023-05-07T07:35:40;16.05;74.01
76102;SHT30;64830;46.910;6.354;2023-05-07T07:38:06;16.09;73.94
76102;SHT30;64830;46.910;6.354;2023-05-07T07:40:31;16.15;74.13
76102;SHT30;64830;46.910;6.354;2023-05-07T07:42:57;16.21;73.26
76102;SHT30;64830;46.910;6.354;2023-05-07T07:45:22;16.22;73.41
76102;SHT30;64830;46.910;6.354;2023-05-07T07:47:48;16.26;73.92
76102;SHT30;64830;46.910;6.354;2023-05-07T07:50:13;16.28;73.43
76102;SHT30;64830;46.910;6.354;2023-05-07T07:52:39;16.33;73.46
76102;SHT30;64830;46.910;6.354;2023-05-07T07:55:05;16.35;73.45
76102;SHT30;64830;46.910;6.354;2023-05-07T07:57:30;16.42;73.43
76102;SHT30;64830;46.910;6.354;2023-05-07T07:59:56;16.45;73.52
76102;SHT30;64830;46.910;6.354;2023-05-07T08:02:21;16.48;73.45
76102;SHT30;64830;46.910;6.354;2023-05-07T08:04:46;16.53;73.13
76102;SHT30;64830;46.910;6.354;2023-05-07T08:07:12;16.59;73.51
76102;SHT30;64830;46.910;6.354;2023-05-07T08:09:38;16.64;72.64
76102;SHT30;64830;46.910;6.354;2023-05-07T08:12:05;16.73;72.69
76102;SHT30;64830;46.910;6.354;2023-05-07T08:14:30;16.79;72.29
76102;SHT30;64830;46.910;6.354;2023-05-07T08:16:56;16.91;71.70
76102;SHT30;64830;46.910;6.354;2023-05-07T08:19:21;16.98;71.81
76102;SHT30;64830;46.910;6.354;2023-05-07T08:21:47;17.11;70.85
76102;SHT30;64830;46.910;6.354;2023-05-07T08:24:14;17.22;70.91
76102;SHT30;64830;46.910;6.354;2023-05-07T08:26:40;17.33;69.59
76102;SHT30;64830;46.910;6.354;2023-05-07T08:29:05;17.38;69.14
76102;SHT30;64830;46.910;6.354;2023-05-07T08:31:31;17.46;67.52
76102;SHT30;64830;46.910;6.354;2023-05-07T08:33:58;17.52;67.12
76102;SHT30;64830;46.910;6.354;2023-05-07T08:36:23;17.57;65.20
76102;SHT30;64830;46.910;6.354;2023-05-07T08:38:49;17.63;66.40
76102;SHT30;64830;46.910;6.354;2023-05-07T08:41:15;17.69;66.34
76102;SHT30;64830;46.910;6.354;2023-05-07T08:43:41;17.80;66.31
76102;SHT30;64830;46.910;6.354;2023-05-07T08:46:09;17.86;64.91
76102;SHT30;64830;46.910;6.354;2023-05-07T08:48:35;17.80;64.15
76102;SHT30;64830;46.910;6.354;2023-05-07T08:51:01;17.71;63.94
76102;SHT30;64830;46.910;6.354;2023-05-07T08:53:26;17.65;64.85
76102;SHT30;64830;46.910;6.354;2023-05-07T08:55:52;17.57;64.85
76102;SHT30;64830;46.910;6.354;2023-05-07T08:58:18;17.57;64.65
76102;SHT30;64830;46.910;6.354;2023-05-07T09:00:43;17.63;64.77
76102;SHT30;64830;46.910;6.354;2023-05-07T09:03:09;17.80;65.55
76102;SHT30;64830;46.910;6.354;2023-05-07T09:05:37;18.07;64.21
76102;SHT30;64830;46.910;6.354;2023-05-07T09:08:04;18.32;62.37
76102;SHT30;64830;46.910;6.354;2023-05-07T09:10:33;18.42;62.61
76102;SHT30;64830;46.910;6.354;2023-05-07T09:12:58;18.39;62.89
76102;SHT30;64830;46.910;6.354;2023-05-07T09:15:24;18.41;63.30
76102;SHT30;64830;46.910;6.354;2023-05-07T09:17:50;18.35;63.63
76102;SHT30;64830;46.910;6.354;2023-05-07T09:20:16;18.26;63.14
76102;SHT30;64830;46.910;6.354;2023-05-07T09:22:41;18.16;63.47
76102;SHT30;64830;46.910;6.354;2023-05-07T09:25:08;18.05;64.32
76102;SHT30;64830;46.910;6.354;2023-05-07T09:27:34;18.09;63.95
76102;SHT30;64830;46.910;6.354;2023-05-07T09:30:03;18.11;63.02
76102;SHT30;64830;46.910;6.354;2023-05-07T09:32:29;18.12;63.48
76102;SHT30;64830;46.910;6.354;2023-05-07T09:34:55;18.12;63.07
76102;SHT30;64830;46.910;6.354;2023-05-07T09:37:21;18.21;62.77
76102;SHT30;64830;46.910;6.354;2023-05-07T09:39:48;18.26;60.85
76102;SHT30;64830;46.910;6.354;2023-05-07T09:42:14;18.29;61.43
76102;SHT30;64830;46.910;6.354;2023-05-07T09:44:45;18.32;61.31
76102;SHT30;64830;46.910;6.354;2023-05-07T09:47:18;18.32;59.27
76102;SHT30;64830;46.910;6.354;2023-05-07T09:49:46;18.32;60.89
76102;SHT30;64830;46.910;6.354;2023-05-07T09:52:13;18.33;61.49
76102;SHT30;64830;46.910;6.354;2023-05-07T09:54:40;18.28;61.74
76102;SHT30;64830;46.910;6.354;2023-05-07T09:57:10;18.18;62.42
76102;SHT30;64830;46.910;6.354;2023-05-07T09:59:37;18.09;62.46
76102;SHT30;64830;46.910;6.354;2023-05-07T10:02:04;18.11;62.22
76102;SHT30;64830;46.910;6.354;2023-05-07T10:04:30;18.14;62.41
76102;SHT30;64830;46.910;6.354;2023-05-07T10:06:57;18.21;61.92
76102;SHT30;64830;46.910;6.354;2023-05-07T10:09:29;18.12;61.93
76102;SHT30;64830;46.910;6.354;2023-05-07T10:11:58;18.07;62.35
76102;SHT30;64830;46.910;6.354;2023-05-07T10:14:30;17.98;62.70
76102;SHT30;64830;46.910;6.354;2023-05-07T10:16:57;17.93;62.35
76102;SHT30;64830;46.910;6.354;2023-05-07T10:19:28;17.86;62.62
76102;SHT30;64830;46.910;6.354;2023-05-07T10:22:04;17.93;62.89
76102;SHT30;64830;46.910;6.354;2023-05-07T10:24:32;17.94;62.89
76102;SHT30;64830;46.910;6.354;2023-05-07T10:27:04;17.98;62.88
76102;SHT30;64830;46.910;6.354;2023-05-07T10:30:00;18.07;62.75
76102;SHT30;64830;46.910;6.354;2023-05-07T10:32:42;18.02;62.36
76102;SHT30;64830;46.910;6.354;2023-05-07T10:35:17;17.93;63.53
76102;SHT30;64830;46.910;6.354;2023-05-07T10:37:45;17.93;63.06
76102;SHT30;64830;46.910;6.354;2023-05-07T10:40:12;17.91;63.20
76102;SHT30;64830;46.910;6.354;2023-05-07T10:42:38;17.90;62.81
76102;SHT30;64830;46.910;6.354;2023-05-07T10:45:16;17.91;63.35
76102;SHT30;64830;46.910;6.354;2023-05-07T10:50:29;18.16;62.82
76102;SHT30;64830;46.910;6.354;2023-05-07T10:55:43;18.22;63.27
76102;SHT30;64830;46.910;6.354;2023-05-07T11:00:47;18.26;62.76
76102;SHT30;64830;46.910;6.354;2023-05-07T11:03:13;18.31;62.84
76102;SHT30;64830;46.910;6.354;2023-05-07T11:05:40;18.22;61.56
76102;SHT30;64830;46.910;6.354;2023-05-07T11:08:06;18.08;62.13
76102;SHT30;64830;46.910;6.354;2023-05-07T11:10:54;18.04;62.62
76102;SHT30;64830;46.910;6.354;2023-05-07T11:13:48;18.07;62.29
76102;SHT30;64830;46.910;6.354;2023-05-07T11:16:19;18.05;62.22
76102;SHT30;64830;46.910;6.354;2023-05-07T11:18:49;18.08;62.25
76102;SHT30;64830;46.910;6.354;2023-05-07T11:21:48;18.08;62.16
76102;SHT30;64830;46.910;6.354;2023-05-07T11:24:14;17.94;64.29
76102;SHT30;64830;46.910;6.354;2023-05-07T11:26:50;17.63;66.03
76102;SHT30;64830;46.910;6.354;2023-05-07T11:29:20;17.49;68.20
76102;SHT30;64830;46.910;6.354;2023-05-07T11:31:53;17.31;68.82
76102;SHT30;64830;46.910;6.354;2023-05-07T11:34:24;17.19;68.76
76102;SHT30;64830;46.910;6.354;2023-05-07T11:36:50;17.07;68.50
76102;SHT30;64830;46.910;6.354;2023-05-07T11:39:30;16.98;67.25
76102;SHT30;64830;46.910;6.354;2023-05-07T11:41:58;16.92;66.26
76102;SHT30;64830;46.910;6.354;2023-05-07T11:44:23;16.84;66.98
76102;SHT30;64830;46.910;6.354;2023-05-07T11:46:49;16.74;67.44
76102;SHT30;64830;46.910;6.354;2023-05-07T11:49:15;16.76;67.71
76102;SHT30;64830;46.910;6.354;2023-05-07T11:51:41;16.83;67.46
76102;SHT30;64830;46.910;6.354;2023-05-07T11:54:09;16.95;67.62
76102;SHT30;64830;46.910;6.354;2023-05-07T11:56:37;17.01;68.24
76102;SHT30;64830;46.910;6.354;2023-05-07T11:59:02;17.00;68.65
76102;SHT30;64830;46.910;6.354;2023-05-07T12:01:28;16.95;69.56
76102;SHT30;64830;46.910;6.354;2023-05-07T12:03:53;16.91;69.70
76102;SHT30;64830;46.910;6.354;2023-05-07T12:06:19;16.95;69.73
76102;SHT30;64830;46.910;6.354;2023-05-07T12:08:45;16.98;69.91
76102;SHT30;64830;46.910;6.354;2023-05-07T12:11:15;17.00;69.79
76102;SHT30;64830;46.910;6.354;2023-05-07T12:13:42;16.97;69.10
76102;SHT30;64830;46.910;6.354;2023-05-07T12:16:09;17.05;69.40
76102;SHT30;64830;46.910;6.354;2023-05-07T12:18:35;17.10;69.16
76102;SHT30;64830;46.910;6.354;2023-05-07T12:21:01;17.05;69.23
76102;SHT30;64830;46.910;6.354;2023-05-07T12:23:28;16.91;69.21
76102;SHT30;64830;46.910;6.354;2023-05-07T12:25:53;16.67;69.88
76102;SHT30;64830;46.910;6.354;2023-05-07T12:28:19;16.60;70.46
76102;SHT30;64830;46.910;6.354;2023-05-07T12:30:46;16.56;69.92
76102;SHT30;64830;46.910;6.354;2023-05-07T12:33:22;16.63;69.62
76102;SHT30;64830;46.910;6.354;2023-05-07T12:35:49;16.64;69.46
76102;SHT30;64830;46.910;6.354;2023-05-07T12:38:16;16.56;69.24
76102;SHT30;64830;46.910;6.354;2023-05-07T12:40:43;16.49;69.69
76102;SHT30;64830;46.910;6.354;2023-05-07T12:43:24;16.51;69.94
76102;SHT30;64830;46.910;6.354;2023-05-07T12:45:50;16.51;70.19
76102;SHT30;64830;46.910;6.354;2023-05-07T12:48:16;16.53;70.37
76102;SHT30;64830;46.910;6.354;2023-05-07T12:50:43;16.62;69.76
76102;SHT30;64830;46.910;6.354;2023-05-07T12:53:10;16.66;69.59
76102;SHT30;64830;46.910;6.354;2023-05-07T12:55:45;16.56;69.94
76102;SHT30;64830;46.910;6.354;2023-05-07T12:58:32;16.55;70.49
76102;SHT30;64830;46.910;6.354;2023-05-07T13:01:00;16.57;70.59
76102;SHT30;64830;46.910;6.354;2023-05-07T13:03:33;16.63;70.61
76102;SHT30;64830;46.910;6.354;2023-05-07T13:06:09;16.73;70.23
76102;SHT30;64830;46.910;6.354;2023-05-07T13:08:39;16.76;70.09
76102;SHT30;64830;46.910;6.354;2023-05-07T13:11:11;16.77;70.18
76102;SHT30;64830;46.910;6.354;2023-05-07T13:13:38;16.84;69.63
76102;SHT30;64830;46.910;6.354;2023-05-07T13:16:05;16.88;69.25
76102;SHT30;64830;46.910;6.354;2023-05-07T13:18:31;16.83;69.36
76102;SHT30;64830;46.910;6.354;2023-05-07T13:20:57;16.70;69.48
76102;SHT30;64830;46.910;6.354;2023-05-07T13:23:23;16.64;69.78
76102;SHT30;64830;46.910;6.354;2023-05-07T13:25:49;16.70;70.19
76102;SHT30;64830;46.910;6.354;2023-05-07T13:28:16;16.67;70.47
76102;SHT30;64830;46.910;6.354;2023-05-07T13:30:41;16.63;70.88
76102;SHT30;64830;46.910;6.354;2023-05-07T13:33:08;16.60;71.16
76102;SHT30;64830;46.910;6.354;2023-05-07T13:35:34;16.56;70.86
76102;SHT30;64830;46.910;6.354;2023-05-07T13:37:59;16.52;71.01
76102;SHT30;64830;46.910;6.354;2023-05-07T13:40:25;16.38;71.47
76102;SHT30;64830;46.910;6.354;2023-05-07T13:42:50;16.29;71.04
76102;SHT30;64830;46.910;6.354;2023-05-07T13:45:17;16.24;71.51
76102;SHT30;64830;46.910;6.354;2023-05-07T13:47:42;16.21;72.35
76102;SHT30;64830;46.910;6.354;2023-05-07T13:50:09;16.12;73.24
76102;SHT30;64830;46.910;6.354;2023-05-07T13:52:35;16.09;74.19
76102;SHT30;64830;46.910;6.354;2023-05-07T13:55:00;15.97;74.96
76102;SHT30;64830;46.910;6.354;2023-05-07T13:57:26;15.93;75.61
76102;SHT30;64830;46.910;6.354;2023-05-07T13:59:51;15.98;76.17
76102;SHT30;64830;46.910;6.354;2023-05-07T14:02:16;16.05;76.16
76102;SHT30;64830;46.910;6.354;2023-05-07T14:04:42;16.09;75.38
76102;SHT30;64830;46.910;6.354;2023-05-07T14:07:07;16.05;74.83
76102;SHT30;64830;46.910;6.354;2023-05-07T14:09:33;15.94;75.18
76102;SHT30;64830;46.910;6.354;2023-05-07T14:11:58;15.91;76.22
76102;SHT30;64830;46.910;6.354;2023-05-07T14:14:24;15.90;75.55
76102;SHT30;64830;46.910;6.354;2023-05-07T14:16:49;15.84;76.45
76102;SHT30;64830;46.910;6.354;2023-05-07T14:19:15;15.77;76.91
76102;SHT30;64830;46.910;6.354;2023-05-07T14:21:41;15.70;76.62
76102;SHT30;64830;46.910;6.354;2023-05-07T14:24:07;15.66;77.27
76102;SHT30;64830;46.910;6.354;2023-05-07T14:26:34;15.66;77.22
76102;SHT30;64830;46.910;6.354;2023-05-07T14:28:59;15.69;77.01
76102;SHT30;64830;46.910;6.354;2023-05-07T14:31:25;15.57;77.40
76102;SHT30;64830;46.910;6.354;2023-05-07T14:33:51;15.59;77.37
76102;SHT30;64830;46.910;6.354;2023-05-07T14:36:17;15.52;77.41
76102;SHT30;64830;46.910;6.354;2023-05-07T14:38:45;15.45;77.63
76102;SHT30;64830;46.910;6.354;2023-05-07T14:41:11;15.32;77.38
76102;SHT30;64830;46.910;6.354;2023-05-07T14:43:36;15.28;78.13
76102;SHT30;64830;46.910;6.354;2023-05-07T14:46:01;15.18;78.08
76102;SHT30;64830;46.910;6.354;2023-05-07T14:48:27;15.15;78.72
76102;SHT30;64830;46.910;6.354;2023-05-07T14:50:52;15.11;78.78
76102;SHT30;64830;46.910;6.354;2023-05-07T14:53:17;15.12;78.72
76102;SHT30;64830;46.910;6.354;2023-05-07T14:55:43;15.08;78.85
76102;SHT30;64830;46.910;6.354;2023-05-07T14:58:08;15.08;79.48
76102;SHT30;64830;46.910;6.354;2023-05-07T15:00:34;15.07;79.29
76102;SHT30;64830;46.910;6.354;2023-05-07T15:03:08;15.02;79.99
76102;SHT30;64830;46.910;6.354;2023-05-07T15:05:34;14.93;80.66
76102;SHT30;64830;46.910;6.354;2023-05-07T15:07:59;14.83;80.63
76102;SHT30;64830;46.910;6.354;2023-05-07T15:10:25;14.76;81.38
76102;SHT30;64830;46.910;6.354;2023-05-07T15:12:51;14.73;81.35
76102;SHT30;64830;46.910;6.354;2023-05-07T15:15:16;14.63;80.90
76102;SHT30;64830;46.910;6.354;2023-05-07T15:17:42;14.59;81.26
76102;SHT30;64830;46.910;6.354;2023-05-07T15:20:07;14.55;81.29
76102;SHT30;64830;46.910;6.354;2023-05-07T15:22:33;14.55;81.50
76102;SHT30;64830;46.910;6.354;2023-05-07T15:24:59;14.53;81.84
76102;SHT30;64830;46.910;6.354;2023-05-07T15:27:24;14.52;81.63
76102;SHT30;64830;46.910;6.354;2023-05-07T15:29:50;14.46;81.82
76102;SHT30;64830;46.910;6.354;2023-05-07T15:32:15;14.42;81.43
76102;SHT30;64830;46.910;6.354;2023-05-07T15:34:41;14.40;81.50